sensor_id;sensor_type;location;lat;lon;timestamp;P1;durP1;ratioP1;P2;durP2;ratioP2
80257;SDS011;69565;37.974;23.708;2023-06-26T00:02:18;9.57;;;1.65;;
80257;SDS011;69565;37.974;23.708;2023-06-26T00:04:44;11.00;;;1.65;;
80257;SDS011;69565;37.974;23.708;2023-06-26T00:07:10;7.03;;;1.42;;
80257;SDS011;69565;37.974;23.708;2023-06-26T00:09:36;11.25;;;1.30;;
80257;SDS011;69565;37.974;23.708;2023-06-26T00:12:02;11.45;;;2.03;;
80257;SDS011;69565;37.974;23.708;2023-06-26T00:14:29;8.88;;;2.13;;
80257;SDS011;69565;37.974;23.708;2023-06-26T00:16:55;12.07;;;2.28;;
80257;SDS011;69565;37.974;23.708;2023-06-26T00:19:20;8.55;;;2.05;;
80257;SDS011;69565;37.974;23.708;2023-06-26T00:21:46;15.07;;;2.75;;
80257;SDS011;69565;37.974;23.708;2023-06-26T00:24:16;11.55;;;2.78;;
80257;SDS011;69565;37.974;23.708;2023-06-26T00:26:43;16.50;;;2.15;;
80257;SDS011;69565;37.974;23.708;2023-06-26T00:29:11;10.32;;;2.17;;
80257;SDS011;69565;37.974;23.708;2023-06-26T00:31:37;11.95;;;2.65;;
80257;SDS011;69565;37.974;23.708;2023-06-26T00:34:05;7.85;;;1.98;;
80257;SDS011;69565;37.974;23.708;2023-06-26T00:36:31;11.80;;;1.95;;
80257;SDS011;69565;37.974;23.708;2023-06-26T00:38:57;11.40;;;2.47;;
80257;SDS011;69565;37.974;23.708;2023-06-26T00:41:23;12.55;;;2.63;;
80257;SDS011;69565;37.974;23.708;2023-06-26T00:43:49;10.13;;;2.45;;
80257;SDS011;69565;37.974;23.708;2023-06-26T00:46:15;12.15;;;2.35;;
80257;SDS011;69565;37.974;23.708;2023-06-26T00:48:42;14.40;;;2.78;;
80257;SDS011;69565;37.974;23.708;2023-06-26T00:51:09;17.45;;;2.03;;
80257;SDS011;69565;37.974;23.708;2023-06-26T00:53:35;8.75;;;1.75;;
80257;SDS011;69565;37.974;23.708;2023-06-26T00:56:04;8.57;;;2.13;;
80257;SDS011;69565;37.974;23.708;2023-06-26T00:58:30;12.50;;;2.65;;
80257;SDS011;69565;37.974;23.708;2023-06-26T01:00:56;9.43;;;2.13;;
80257;SDS011;69565;37.974;23.708;2023-06-26T01:03:23;9.85;;;2.15;;
80257;SDS011;69565;37.974;23.708;2023-06-26T01:05:50;6.25;;;1.73;;
80257;SDS011;69565;37.974;23.708;2023-06-26T01:08:17;10.02;;;2.30;;
80257;SDS011;69565;37.974;23.708;2023-06-26T01:10:44;18.00;;;2.40;;
80257;SDS011;69565;37.974;23.708;2023-06-26T01:13:14;10.88;;;2.13;;
80257;SDS011;69565;37.974;23.708;2023-06-26T01:15:41;7.28;;;1.95;;
80257;SDS011;69565;37.974;23.708;2023-06-26T01:18:07;6.30;;;2.20;;
80257;SDS011;69565;37.974;23.708;2023-06-26T01:20:37;7.03;;;1.73;;
80257;SDS011;69565;37.974;23.708;2023-06-26T01:23:12;5.05;;;1.83;;
80257;SDS011;69565;37.974;23.708;2023-06-26T01:25:51;7.25;;;1.80;;
80257;SDS011;69565;37.974;23.708;2023-06-26T01:28:19;9.02;;;1.83;;
80257;SDS011;69565;37.974;23.708;2023-06-26T01:30:46;9.05;;;1.63;;
80257;SDS011;69565;37.974;23.708;2023-06-26T01:33:13;9.98;;;1.85;;
80257;SDS011;69565;37.974;23.708;2023-06-26T01:35:39;6.03;;;1.88;;
80257;SDS011;69565;37.974;23.708;2023-06-26T01:38:38;10.35;;;1.90;;
80257;SDS011;69565;37.974;23.708;2023-06-26T01:40:57;9.05;;;1.77;;
80257;SDS011;69565;37.974;23.708;2023-06-26T01:52:19;6.60;;;1.90;;
80257;SDS011;69565;37.974;23.708;2023-06-26T01:55:02;9.73;;;2.30;;
80257;SDS011;69565;37.974;23.708;2023-06-26T01:57:42;6.10;;;2.00;;
80257;SDS011;69565;37.974;23.708;2023-06-26T02:00:09;12.02;;;2.22;;
80257;SDS011;69565;37.974;23.708;2023-06-26T02:02:36;11.75;;;2.25;;
80257;SDS011;69565;37.974;23.708;2023-06-26T02:05:02;10.77;;;2.50;;
80257;SDS011;69565;37.974;23.708;2023-06-26T02:07:28;8.07;;;1.88;;
80257;SDS011;69565;37.974;23.708;2023-06-26T02:09:54;14.48;;;2.42;;
80257;SDS011;69565;37.974;23.708;2023-06-26T02:12:20;11.80;;;2.60;;
80257;SDS011;69565;37.974;23.708;2023-06-26T02:14:45;11.80;;;1.92;;
80257;SDS011;69565;37.974;23.708;2023-06-26T02:17:11;9.02;;;1.80;;
80257;SDS011;69565;37.974;23.708;2023-06-26T02:19:37;8.20;;;1.80;;
80257;SDS011;69565;37.974;23.708;2023-06-26T02:22:10;7.45;;;2.00;;
80257;SDS011;69565;37.974;23.708;2023-06-26T02:24:36;10.05;;;2.17;;
80257;SDS011;69565;37.974;23.708;2023-06-26T02:27:01;4.95;;;1.63;;
80257;SDS011;69565;37.974;23.708;2023-06-26T02:29:27;6.80;;;1.85;;
80257;SDS011;69565;37.974;23.708;2023-06-26T02:31:53;6.40;;;1.88;;
80257;SDS011;69565;37.974;23.708;2023-06-26T02:34:18;5.50;;;1.75;;
80257;SDS011;69565;37.974;23.708;2023-06-26T02:36:44;6.72;;;1.80;;
80257;SDS011;69565;37.974;23.708;2023-06-26T02:39:10;8.25;;;2.00;;
80257;SDS011;69565;37.974;23.708;2023-06-26T02:41:36;6.18;;;1.60;;
80257;SDS011;69565;37.974;23.708;2023-06-26T02:44:01;8.05;;;1.88;;
80257;SDS011;69565;37.974;23.708;2023-06-26T02:46:27;5.70;;;1.60;;
80257;SDS011;69565;37.974;23.708;2023-06-26T02:48:53;5.00;;;1.63;;
80257;SDS011;69565;37.974;23.708;2023-06-26T02:51:18;5.03;;;1.67;;
80257;SDS011;69565;37.974;23.708;2023-06-26T02:53:44;4.20;;;1.70;;
80257;SDS011;69565;37.974;23.708;2023-06-26T02:56:10;11.15;;;1.77;;
80257;SDS011;69565;37.974;23.708;2023-06-26T02:58:35;11.35;;;1.70;;
80257;SDS011;69565;37.974;23.708;2023-06-26T03:01:01;10.68;;;1.70;;
80257;SDS011;69565;37.974;23.708;2023-06-26T03:03:27;6.88;;;1.70;;
80257;SDS011;69565;37.974;23.708;2023-06-26T03:05:52;6.32;;;1.90;;
80257;SDS011;69565;37.974;23.708;2023-06-26T03:08:19;7.03;;;1.30;;
80257;SDS011;69565;37.974;23.708;2023-06-26T03:10:44;6.20;;;1.60;;
80257;SDS011;69565;37.974;23.708;2023-06-26T03:13:10;6.57;;;1.75;;
80257;SDS011;69565;37.974;23.708;2023-06-26T03:15:36;7.80;;;1.90;;
80257;SDS011;69565;37.974;23.708;2023-06-26T03:18:01;6.75;;;1.95;;
80257;SDS011;69565;37.974;23.708;2023-06-26T03:20:27;8.75;;;2.30;;
80257;SDS011;69565;37.974;23.708;2023-06-26T03:22:53;8.32;;;2.35;;
80257;SDS011;69565;37.974;23.708;2023-06-26T03:25:18;8.38;;;2.38;;
80257;SDS011;69565;37.974;23.708;2023-06-26T03:27:44;8.75;;;2.22;;
80257;SDS011;69565;37.974;23.708;2023-06-26T03:30:10;5.95;;;2.17;;
80257;SDS011;69565;37.974;23.708;2023-06-26T03:32:36;12.38;;;2.05;;
80257;SDS011;69565;37.974;23.708;2023-06-26T03:35:02;12.25;;;2.67;;
80257;SDS011;69565;37.974;23.708;2023-06-26T03:37:28;4.68;;;1.92;;
80257;SDS011;69565;37.974;23.708;2023-06-26T03:39:54;6.65;;;2.00;;
80257;SDS011;69565;37.974;23.708;2023-06-26T03:42:19;15.60;;;2.08;;
80257;SDS011;69565;37.974;23.708;2023-06-26T03:44:45;8.35;;;1.60;;
80257;SDS011;69565;37.974;23.708;2023-06-26T03:47:11;13.15;;;2.03;;
80257;SDS011;69565;37.974;23.708;2023-06-26T03:49:37;10.65;;;2.42;;
80257;SDS011;69565;37.974;23.708;2023-06-26T03:52:02;7.45;;;1.77;;
80257;SDS011;69565;37.974;23.708;2023-06-26T03:54:28;11.40;;;1.90;;
80257;SDS011;69565;37.974;23.708;2023-06-26T03:56:54;8.05;;;2.00;;
80257;SDS011;69565;37.974;23.708;2023-06-26T03:59:20;9.60;;;2.25;;
80257;SDS011;69565;37.974;23.708;2023-06-26T04:01:45;9.57;;;2.00;;
80257;SDS011;69565;37.974;23.708;2023-06-26T04:04:11;10.00;;;2.40;;
80257;SDS011;69565;37.974;23.708;2023-06-26T04:06:37;8.63;;;1.40;;
80257;SDS011;69565;37.974;23.708;2023-06-26T04:09:02;7.30;;;1.70;;
80257;SDS011;69565;37.974;23.708;2023-06-26T04:11:29;8.65;;;1.80;;
80257;SDS011;69565;37.974;23.708;2023-06-26T04:13:56;7.53;;;1.50;;
80257;SDS011;69565;37.974;23.708;2023-06-26T04:16:21;11.07;;;1.45;;
80257;SDS011;69565;37.974;23.708;2023-06-26T04:18:52;19.17;;;2.35;;
80257;SDS011;69565;37.974;23.708;2023-06-26T04:21:18;193.63;;;9.25;;
80257;SDS011;69565;37.974;23.708;2023-06-26T04:23:44;40.22;;;2.17;;
80257;SDS011;69565;37.974;23.708;2023-06-26T04:26:10;26.45;;;2.25;;
80257;SDS011;69565;37.974;23.708;2023-06-26T04:28:39;27.73;;;2.60;;
80257;SDS011;69565;37.974;23.708;2023-06-26T04:31:06;12.15;;;1.60;;
80257;SDS011;69565;37.974;23.708;2023-06-26T04:33:33;12.48;;;2.25;;
80257;SDS011;69565;37.974;23.708;2023-06-26T04:36:01;23.67;;;2.00;;
80257;SDS011;69565;37.974;23.708;2023-06-26T04:38:30;26.60;;;1.98;;
80257;SDS011;69565;37.974;23.708;2023-06-26T04:40:57;18.50;;;2.38;;
80257;SDS011;69565;37.974;23.708;2023-06-26T04:43:23;20.15;;;1.80;;
80257;SDS011;69565;37.974;23.708;2023-06-26T04:45:48;16.17;;;1.98;;
80257;SDS011;69565;37.974;23.708;2023-06-26T04:48:14;29.67;;;2.00;;
80257;SDS011;69565;37.974;23.708;2023-06-26T04:50:43;21.30;;;1.67;;
80257;SDS011;69565;37.974;23.708;2023-06-26T04:53:18;12.70;;;1.90;;
80257;SDS011;69565;37.974;23.708;2023-06-26T04:55:48;12.23;;;1.90;;
80257;SDS011;69565;37.974;23.708;2023-06-26T04:58:14;14.35;;;2.42;;
80257;SDS011;69565;37.974;23.708;2023-06-26T05:00:41;9.50;;;1.98;;
80257;SDS011;69565;37.974;23.708;2023-06-26T05:03:13;14.23;;;2.00;;
80257;SDS011;69565;37.974;23.708;2023-06-26T05:05:42;7.40;;;1.38;;
80257;SDS011;69565;37.974;23.708;2023-06-26T05:10:46;7.35;;;1.55;;
80257;SDS011;69565;37.974;23.708;2023-06-26T05:13:12;12.02;;;2.00;;
80257;SDS011;69565;37.974;23.708;2023-06-26T05:15:44;10.07;;;1.70;;
80257;SDS011;69565;37.974;23.708;2023-06-26T05:18:10;12.65;;;1.70;;
80257;SDS011;69565;37.974;23.708;2023-06-26T05:20:36;8.50;;;1.85;;
80257;SDS011;69565;37.974;23.708;2023-06-26T05:23:03;7.20;;;1.10;;
80257;SDS011;69565;37.974;23.708;2023-06-26T05:25:29;6.22;;;1.00;;
80257;SDS011;69565;37.974;23.708;2023-06-26T05:27:58;2.45;;;0.90;;
80257;SDS011;69565;37.974;23.708;2023-06-26T05:30:25;2.78;;;0.82;;
80257;SDS011;69565;37.974;23.708;2023-06-26T05:32:53;4.32;;;0.90;;
80257;SDS011;69565;37.974;23.708;2023-06-26T05:35:20;3.30;;;0.90;;
80257;SDS011;69565;37.974;23.708;2023-06-26T05:37:49;1.77;;;0.80;;
80257;SDS011;69565;37.974;23.708;2023-06-26T05:40:16;4.45;;;0.80;;
80257;SDS011;69565;37.974;23.708;2023-06-26T05:42:45;5.65;;;0.90;;
80257;SDS011;69565;37.974;23.708;2023-06-26T05:45:11;4.70;;;0.80;;
80257;SDS011;69565;37.974;23.708;2023-06-26T05:47:37;6.05;;;0.80;;
80257;SDS011;69565;37.974;23.708;2023-06-26T05:50:03;2.45;;;0.65;;
80257;SDS011;69565;37.974;23.708;2023-06-26T05:52:29;5.60;;;0.80;;
80257;SDS011;69565;37.974;23.708;2023-06-26T05:54:56;2.67;;;0.80;;
80257;SDS011;69565;37.974;23.708;2023-06-26T05:57:25;1.52;;;0.73;;
80257;SDS011;69565;37.974;23.708;2023-06-26T05:59:53;1.05;;;0.80;;
80257;SDS011;69565;37.974;23.708;2023-06-26T06:02:19;7.63;;;0.70;;
80257;SDS011;69565;37.974;23.708;2023-06-26T06:04:45;2.38;;;0.60;;
80257;SDS011;69565;37.974;23.708;2023-06-26T06:07:11;3.58;;;0.68;;
80257;SDS011;69565;37.974;23.708;2023-06-26T06:09:37;2.90;;;0.50;;
80257;SDS011;69565;37.974;23.708;2023-06-26T06:12:03;1.98;;;0.52;;
80257;SDS011;69565;37.974;23.708;2023-06-26T06:14:31;2.13;;;0.50;;
80257;SDS011;69565;37.974;23.708;2023-06-26T06:17:00;0.70;;;0.50;;
80257;SDS011;69565;37.974;23.708;2023-06-26T06:19:26;2.10;;;0.50;;
80257;SDS011;69565;37.974;23.708;2023-06-26T06:21:52;4.40;;;0.40;;
80257;SDS011;69565;37.974;23.708;2023-06-26T06:24:18;1.75;;;0.50;;
80257;SDS011;69565;37.974;23.708;2023-06-26T06:26:44;5.97;;;0.40;;
80257;SDS011;69565;37.974;23.708;2023-06-26T06:29:10;1.75;;;0.30;;
80257;SDS011;69565;37.974;23.708;2023-06-26T06:31:35;2.35;;;0.40;;
80257;SDS011;69565;37.974;23.708;2023-06-26T06:34:01;3.25;;;0.57;;
80257;SDS011;69565;37.974;23.708;2023-06-26T06:36:27;0.70;;;0.40;;
80257;SDS011;69565;37.974;23.708;2023-06-26T06:38:53;1.02;;;0.43;;
80257;SDS011;69565;37.974;23.708;2023-06-26T06:41:19;2.08;;;0.50;;
80257;SDS011;69565;37.974;23.708;2023-06-26T06:43:45;1.80;;;0.40;;
80257;SDS011;69565;37.974;23.708;2023-06-26T06:46:11;2.40;;;0.50;;
80257;SDS011;69565;37.974;23.708;2023-06-26T06:48:37;0.95;;;0.50;;
80257;SDS011;69565;37.974;23.708;2023-06-26T06:51:02;1.13;;;0.50;;
80257;SDS011;69565;37.974;23.708;2023-06-26T06:53:30;4.13;;;0.40;;
80257;SDS011;69565;37.974;23.708;2023-06-26T06:55:57;2.67;;;0.47;;
80257;SDS011;69565;37.974;23.708;2023-06-26T06:58:23;2.58;;;0.45;;
80257;SDS011;69565;37.974;23.708;2023-06-26T07:00:49;0.90;;;0.50;;
80257;SDS011;69565;37.974;23.708;2023-06-26T07:03:21;1.65;;;0.50;;
80257;SDS011;69565;37.974;23.708;2023-06-26T07:05:47;2.55;;;0.50;;
80257;SDS011;69565;37.974;23.708;2023-06-26T07:08:13;1.05;;;0.50;;
80257;SDS011;69565;37.974;23.708;2023-06-26T07:10:39;1.83;;;0.40;;
80257;SDS011;69565;37.974;23.708;2023-06-26T07:13:05;0.63;;;0.40;;
80257;SDS011;69565;37.974;23.708;2023-06-26T07:15:40;3.90;;;0.50;;
80257;SDS011;69565;37.974;23.708;2023-06-26T07:18:16;1.42;;;0.50;;
80257;SDS011;69565;37.974;23.708;2023-06-26T07:20:47;2.45;;;0.50;;
80257;SDS011;69565;37.974;23.708;2023-06-26T07:23:13;1.02;;;0.50;;
80257;SDS011;69565;37.974;23.708;2023-06-26T07:25:39;4.75;;;0.47;;
80257;SDS011;69565;37.974;23.708;2023-06-26T07:28:09;1.92;;;0.40;;
80257;SDS011;69565;37.974;23.708;2023-06-26T07:30:38;4.78;;;0.50;;
80257;SDS011;69565;37.974;23.708;2023-06-26T07:33:04;1.55;;;0.40;;
80257;SDS011;69565;37.974;23.708;2023-06-26T07:35:29;1.02;;;0.45;;
80257;SDS011;69565;37.974;23.708;2023-06-26T07:37:56;4.57;;;0.47;;
80257;SDS011;69565;37.974;23.708;2023-06-26T07:40:22;1.17;;;0.40;;
80257;SDS011;69565;37.974;23.708;2023-06-26T07:42:48;2.30;;;0.45;;
80257;SDS011;69565;37.974;23.708;2023-06-26T07:45:15;0.75;;;0.40;;
80257;SDS011;69565;37.974;23.708;2023-06-26T07:47:41;1.15;;;0.40;;
80257;SDS011;69565;37.974;23.708;2023-06-26T07:50:06;2.28;;;0.40;;
80257;SDS011;69565;37.974;23.708;2023-06-26T07:52:32;1.25;;;0.50;;
80257;SDS011;69565;37.974;23.708;2023-06-26T07:54:59;2.65;;;0.40;;
80257;SDS011;69565;37.974;23.708;2023-06-26T07:57:28;0.90;;;0.43;;
80257;SDS011;69565;37.974;23.708;2023-06-26T07:59:54;0.93;;;0.40;;
80257;SDS011;69565;37.974;23.708;2023-06-26T08:02:21;1.60;;;0.50;;
80257;SDS011;69565;37.974;23.708;2023-06-26T08:04:49;3.60;;;0.50;;
80257;SDS011;69565;37.974;23.708;2023-06-26T08:07:15;1.27;;;0.50;;
80257;SDS011;69565;37.974;23.708;2023-06-26T08:09:41;1.52;;;0.63;;
80257;SDS011;69565;37.974;23.708;2023-06-26T08:12:07;1.50;;;0.50;;
80257;SDS011;69565;37.974;23.708;2023-06-26T08:14:36;2.67;;;0.40;;
80257;SDS011;69565;37.974;23.708;2023-06-26T08:17:01;1.10;;;0.57;;
80257;SDS011;69565;37.974;23.708;2023-06-26T08:19:27;3.85;;;0.60;;
80257;SDS011;69565;37.974;23.708;2023-06-26T08:21:53;4.97;;;0.50;;
80257;SDS011;69565;37.974;23.708;2023-06-26T08:24:18;0.90;;;0.50;;
80257;SDS011;69565;37.974;23.708;2023-06-26T08:26:45;2.10;;;0.60;;
80257;SDS011;69565;37.974;23.708;2023-06-26T08:29:11;0.80;;;0.50;;
80257;SDS011;69565;37.974;23.708;2023-06-26T08:31:37;3.55;;;0.60;;
80257;SDS011;69565;37.974;23.708;2023-06-26T08:34:04;0.98;;;0.50;;
80257;SDS011;69565;37.974;23.708;2023-06-26T08:36:31;2.88;;;0.50;;
80257;SDS011;69565;37.974;23.708;2023-06-26T08:39:02;0.80;;;0.50;;
80257;SDS011;69565;37.974;23.708;2023-06-26T08:41:30;1.65;;;0.60;;
80257;SDS011;69565;37.974;23.708;2023-06-26T08:43:59;1.30;;;0.50;;
80257;SDS011;69565;37.974;23.708;2023-06-26T08:46:25;1.33;;;0.50;;
80257;SDS011;69565;37.974;23.708;2023-06-26T08:49:08;1.98;;;0.60;;
80257;SDS011;69565;37.974;23.708;2023-06-26T08:52:33;2.25;;;0.50;;
80257;SDS011;69565;37.974;23.708;2023-06-26T08:54:59;0.60;;;0.50;;
80257;SDS011;69565;37.974;23.708;2023-06-26T08:57:28;1.23;;;0.57;;
80257;SDS011;69565;37.974;23.708;2023-06-26T08:59:56;3.10;;;0.55;;
80257;SDS011;69565;37.974;23.708;2023-06-26T09:02:22;2.10;;;0.60;;
80257;SDS011;69565;37.974;23.708;2023-06-26T09:04:49;3.47;;;0.70;;
80257;SDS011;69565;37.974;23.708;2023-06-26T09:07:16;0.80;;;0.60;;
80257;SDS011;69565;37.974;23.708;2023-06-26T09:09:42;7.95;;;0.68;;
80257;SDS011;69565;37.974;23.708;2023-06-26T09:12:09;3.47;;;0.60;;
80257;SDS011;69565;37.974;23.708;2023-06-26T09:14:36;5.15;;;0.50;;
80257;SDS011;69565;37.974;23.708;2023-06-26T09:17:03;2.55;;;0.60;;
80257;SDS011;69565;37.974;23.708;2023-06-26T09:19:29;1.17;;;0.50;;
80257;SDS011;69565;37.974;23.708;2023-06-26T09:21:55;3.45;;;0.50;;
80257;SDS011;69565;37.974;23.708;2023-06-26T09:24:21;0.75;;;0.50;;
80257;SDS011;69565;37.974;23.708;2023-06-26T09:26:47;1.98;;;0.50;;
80257;SDS011;69565;37.974;23.708;2023-06-26T09:29:14;0.90;;;0.50;;
80257;SDS011;69565;37.974;23.708;2023-06-26T09:31:43;1.70;;;0.60;;
80257;SDS011;69565;37.974;23.708;2023-06-26T09:34:10;1.13;;;0.60;;
80257;SDS011;69565;37.974;23.708;2023-06-26T09:36:35;2.22;;;0.60;;
80257;SDS011;69565;37.974;23.708;2023-06-26T09:39:02;1.05;;;0.60;;
80257;SDS011;69565;37.974;23.708;2023-06-26T09:41:29;0.90;;;0.52;;
80257;SDS011;69565;37.974;23.708;2023-06-26T09:43:57;1.42;;;0.50;;
80257;SDS011;69565;37.974;23.708;2023-06-26T09:46:28;4.35;;;0.60;;
80257;SDS011;69565;37.974;23.708;2023-06-26T09:49:01;2.33;;;0.80;;
80257;SDS011;69565;37.974;23.708;2023-06-26T09:51:32;5.05;;;0.70;;
80257;SDS011;69565;37.974;23.708;2023-06-26T09:54:00;3.38;;;0.70;;
80257;SDS011;69565;37.974;23.708;2023-06-26T09:56:27;0.93;;;0.50;;
80257;SDS011;69565;37.974;23.708;2023-06-26T09:58:57;2.90;;;0.50;;
80257;SDS011;69565;37.974;23.708;2023-06-26T10:01:26;3.93;;;0.53;;
80257;SDS011;69565;37.974;23.708;2023-06-26T10:03:53;1.50;;;0.60;;
80257;SDS011;69565;37.974;23.708;2023-06-26T10:06:20;1.38;;;0.68;;
80257;SDS011;69565;37.974;23.708;2023-06-26T10:08:50;1.02;;;0.60;;
80257;SDS011;69565;37.974;23.708;2023-06-26T10:11:19;0.60;;;0.47;;
80257;SDS011;69565;37.974;23.708;2023-06-26T10:13:47;3.53;;;0.50;;
80257;SDS011;69565;37.974;23.708;2023-06-26T10:16:17;0.70;;;0.50;;
80257;SDS011;69565;37.974;23.708;2023-06-26T10:18:48;0.90;;;0.55;;
80257;SDS011;69565;37.974;23.708;2023-06-26T10:21:21;1.70;;;0.50;;
80257;SDS011;69565;37.974;23.708;2023-06-26T10:23:48;0.70;;;0.50;;
80257;SDS011;69565;37.974;23.708;2023-06-26T10:26:15;3.63;;;0.50;;
80257;SDS011;69565;37.974;23.708;2023-06-26T10:28:43;4.03;;;0.60;;
80257;SDS011;69565;37.974;23.708;2023-06-26T10:31:10;3.72;;;0.60;;
80257;SDS011;69565;37.974;23.708;2023-06-26T10:33:38;2.97;;;0.50;;
80257;SDS011;69565;37.974;23.708;2023-06-26T10:36:20;1.85;;;0.52;;
80257;SDS011;69565;37.974;23.708;2023-06-26T10:38:57;1.88;;;0.52;;
80257;SDS011;69565;37.974;23.708;2023-06-26T10:41:26;3.17;;;0.50;;
80257;SDS011;69565;37.974;23.708;2023-06-26T10:46:24;2.65;;;0.52;;
80257;SDS011;69565;37.974;23.708;2023-06-26T10:48:58;0.80;;;0.50;;
80257;SDS011;69565;37.974;23.708;2023-06-26T10:51:28;0.90;;;0.50;;
80257;SDS011;69565;37.974;23.708;2023-06-26T10:53:57;1.15;;;0.45;;
80257;SDS011;69565;37.974;23.708;2023-06-26T10:59:19;3.08;;;0.52;;
80257;SDS011;69565;37.974;23.708;2023-06-26T11:01:46;4.70;;;0.50;;
80257;SDS011;69565;37.974;23.708;2023-06-26T11:10:01;1.10;;;0.47;;
80257;SDS011;69565;37.974;23.708;2023-06-26T11:12:42;2.10;;;0.50;;
80257;SDS011;69565;37.974;23.708;2023-06-26T11:15:12;2.28;;;0.50;;
80257;SDS011;69565;37.974;23.708;2023-06-26T11:17:42;2.90;;;0.57;;
80257;SDS011;69565;37.974;23.708;2023-06-26T11:20:09;5.85;;;0.73;;
80257;SDS011;69565;37.974;23.708;2023-06-26T11:22:42;3.03;;;0.73;;
80257;SDS011;69565;37.974;23.708;2023-06-26T11:25:08;3.05;;;0.90;;
80257;SDS011;69565;37.974;23.708;2023-06-26T11:30:07;4.43;;;0.90;;
80257;SDS011;69565;37.974;23.708;2023-06-26T11:32:36;2.40;;;0.90;;
80257;SDS011;69565;37.974;23.708;2023-06-26T11:35:02;5.22;;;0.90;;
80257;SDS011;69565;37.974;23.708;2023-06-26T11:37:29;5.50;;;0.80;;
80257;SDS011;69565;37.974;23.708;2023-06-26T11:39:57;4.10;;;1.00;;
80257;SDS011;69565;37.974;23.708;2023-06-26T11:42:23;4.40;;;0.90;;
80257;SDS011;69565;37.974;23.708;2023-06-26T11:44:52;6.93;;;0.90;;
80257;SDS011;69565;37.974;23.708;2023-06-26T11:47:20;3.78;;;0.93;;
80257;SDS011;69565;37.974;23.708;2023-06-26T11:49:46;3.00;;;0.93;;
80257;SDS011;69565;37.974;23.708;2023-06-26T11:52:14;2.55;;;0.90;;
80257;SDS011;69565;37.974;23.708;2023-06-26T11:54:53;1.95;;;0.88;;
80257;SDS011;69565;37.974;23.708;2023-06-26T11:57:19;4.45;;;0.90;;
80257;SDS011;69565;37.974;23.708;2023-06-26T11:59:45;1.35;;;0.85;;
80257;SDS011;69565;37.974;23.708;2023-06-26T12:02:13;4.40;;;0.90;;
80257;SDS011;69565;37.974;23.708;2023-06-26T12:04:48;3.95;;;0.80;;
80257;SDS011;69565;37.974;23.708;2023-06-26T12:07:14;1.98;;;0.80;;
80257;SDS011;69565;37.974;23.708;2023-06-26T12:09:41;2.53;;;0.70;;
80257;SDS011;69565;37.974;23.708;2023-06-26T12:12:11;1.27;;;0.80;;
80257;SDS011;69565;37.974;23.708;2023-06-26T12:14:38;3.10;;;0.80;;
80257;SDS011;69565;37.974;23.708;2023-06-26T12:20:50;2.22;;;0.90;;
80257;SDS011;69565;37.974;23.708;2023-06-26T12:23:16;1.38;;;0.80;;
80257;SDS011;69565;37.974;23.708;2023-06-26T12:25:43;3.38;;;1.00;;
80257;SDS011;69565;37.974;23.708;2023-06-26T12:28:18;1.80;;;0.88;;
80257;SDS011;69565;37.974;23.708;2023-06-26T12:30:47;4.03;;;1.00;;
80257;SDS011;69565;37.974;23.708;2023-06-26T12:33:33;2.67;;;0.80;;
80257;SDS011;69565;37.974;23.708;2023-06-26T12:35:59;3.60;;;0.90;;
80257;SDS011;69565;37.974;23.708;2023-06-26T12:38:32;4.88;;;0.90;;
80257;SDS011;69565;37.974;23.708;2023-06-26T12:40:58;4.18;;;1.02;;
80257;SDS011;69565;37.974;23.708;2023-06-26T12:43:25;11.77;;;1.00;;
80257;SDS011;69565;37.974;23.708;2023-06-26T12:45:57;4.05;;;0.80;;
80257;SDS011;69565;37.974;23.708;2023-06-26T12:48:42;1.40;;;0.80;;
80257;SDS011;69565;37.974;23.708;2023-06-26T12:51:11;3.90;;;0.93;;
80257;SDS011;69565;37.974;23.708;2023-06-26T12:53:38;2.70;;;0.98;;
80257;SDS011;69565;37.974;23.708;2023-06-26T12:56:10;1.75;;;0.95;;
80257;SDS011;69565;37.974;23.708;2023-06-26T12:58:37;3.17;;;0.95;;
80257;SDS011;69565;37.974;23.708;2023-06-26T13:01:03;2.70;;;0.82;;
80257;SDS011;69565;37.974;23.708;2023-06-26T13:03:35;9.23;;;1.05;;
80257;SDS011;69565;37.974;23.708;2023-06-26T13:06:02;1.20;;;0.82;;
80257;SDS011;69565;37.974;23.708;2023-06-26T13:08:28;1.40;;;0.90;;
80257;SDS011;69565;37.974;23.708;2023-06-26T13:10:54;3.38;;;0.85;;
80257;SDS011;69565;37.974;23.708;2023-06-26T13:13:19;1.33;;;0.90;;
80257;SDS011;69565;37.974;23.708;2023-06-26T13:15:45;2.45;;;0.95;;
80257;SDS011;69565;37.974;23.708;2023-06-26T13:18:11;3.97;;;1.00;;
80257;SDS011;69565;37.974;23.708;2023-06-26T13:20:36;2.20;;;1.30;;
80257;SDS011;69565;37.974;23.708;2023-06-26T13:23:02;3.45;;;1.30;;
80257;SDS011;69565;37.974;23.708;2023-06-26T13:25:28;3.45;;;1.33;;
80257;SDS011;69565;37.974;23.708;2023-06-26T13:27:54;3.38;;;1.38;;
80257;SDS011;69565;37.974;23.708;2023-06-26T13:30:20;5.63;;;1.45;;
80257;SDS011;69565;37.974;23.708;2023-06-26T13:32:46;3.33;;;1.40;;
80257;SDS011;69565;37.974;23.708;2023-06-26T13:35:12;9.32;;;1.40;;
80257;SDS011;69565;37.974;23.708;2023-06-26T13:37:39;7.07;;;1.20;;
80257;SDS011;69565;37.974;23.708;2023-06-26T13:40:06;3.72;;;1.40;;
80257;SDS011;69565;37.974;23.708;2023-06-26T13:42:32;4.55;;;1.42;;
80257;SDS011;69565;37.974;23.708;2023-06-26T13:44:58;4.57;;;1.50;;
80257;SDS011;69565;37.974;23.708;2023-06-26T13:47:24;4.80;;;1.65;;
80257;SDS011;69565;37.974;23.708;2023-06-26T13:49:50;33.42;;;5.03;;
80257;SDS011;69565;37.974;23.708;2023-06-26T13:52:15;18.33;;;4.82;;
80257;SDS011;69565;37.974;23.708;2023-06-26T13:54:41;15.30;;;3.50;;
80257;SDS011;69565;37.974;23.708;2023-06-26T13:57:07;12.75;;;2.72;;
80257;SDS011;69565;37.974;23.708;2023-06-26T13:59:33;9.40;;;2.20;;
80257;SDS011;69565;37.974;23.708;2023-06-26T14:02:02;12.20;;;2.28;;
80257;SDS011;69565;37.974;23.708;2023-06-26T14:04:30;4.60;;;1.67;;
80257;SDS011;69565;37.974;23.708;2023-06-26T14:06:56;5.30;;;1.50;;
80257;SDS011;69565;37.974;23.708;2023-06-26T14:09:21;7.43;;;1.70;;
80257;SDS011;69565;37.974;23.708;2023-06-26T14:11:47;4.97;;;1.63;;
80257;SDS011;69565;37.974;23.708;2023-06-26T14:14:13;6.13;;;1.42;;
80257;SDS011;69565;37.974;23.708;2023-06-26T14:16:38;5.50;;;1.40;;
80257;SDS011;69565;37.974;23.708;2023-06-26T14:19:07;5.40;;;1.30;;
80257;SDS011;69565;37.974;23.708;2023-06-26T14:21:38;7.55;;;1.30;;
80257;SDS011;69565;37.974;23.708;2023-06-26T14:24:03;5.63;;;1.10;;
80257;SDS011;69565;37.974;23.708;2023-06-26T14:26:29;5.15;;;1.40;;
80257;SDS011;69565;37.974;23.708;2023-06-26T14:28:55;5.28;;;1.33;;
80257;SDS011;69565;37.974;23.708;2023-06-26T14:31:21;3.25;;;1.00;;
80257;SDS011;69565;37.974;23.708;2023-06-26T14:33:47;1.80;;;1.00;;
80257;SDS011;69565;37.974;23.708;2023-06-26T14:36:12;3.80;;;1.10;;
80257;SDS011;69565;37.974;23.708;2023-06-26T14:38:38;4.88;;;1.38;;
80257;SDS011;69565;37.974;23.708;2023-06-26T14:41:04;3.47;;;1.45;;
80257;SDS011;69565;37.974;23.708;2023-06-26T14:43:29;4.55;;;1.20;;
80257;SDS011;69565;37.974;23.708;2023-06-26T14:45:55;2.35;;;1.33;;
80257;SDS011;69565;37.974;23.708;2023-06-26T14:48:21;4.70;;;1.30;;
80257;SDS011;69565;37.974;23.708;2023-06-26T14:50:46;4.38;;;1.40;;
80257;SDS011;69565;37.974;23.708;2023-06-26T14:53:15;1.52;;;1.10;;
80257;SDS011;69565;37.974;23.708;2023-06-26T14:55:41;3.13;;;1.35;;
80257;SDS011;69565;37.974;23.708;2023-06-26T14:58:07;3.85;;;1.38;;
80257;SDS011;69565;37.974;23.708;2023-06-26T15:00:33;1.50;;;1.10;;
80257;SDS011;69565;37.974;23.708;2023-06-26T15:02:58;2.75;;;1.40;;